Time;durP1;ratioP1;P1;durP2;ratioP2;P2;SDS_P1;SDS_P2;PMS_P1;PMS_P2;Temp;Humidity;BMP_temperature;BMP_pressure;BME280_temperature;BME280_humidity;BME280_pressure;Samples;Min_cycle;Max_cycle;Signal;HPM_P1;HPM_P2
2021/04/04 00:01:04;;;;;;;14.13;8.00;;;5.20;1.00;;;;;;5091784;28;20224;-57
2021/04/04 00:03:30;;;;;;;9.80;8.17;;;5.30;1.00;;;;;;5091216;28;20448;-58
2021/04/04 00:05:56;;;;;;;10.50;7.53;;;5.40;1.00;;;;;;5092427;28;20548;-58
2021/04/04 00:08:21;;;;;;;13.50;7.73;;;5.20;1.00;;;;;;5086799;28;20560;-57
2021/04/04 00:10:47;;;;;;;10.87;7.87;;;5.20;1.00;;;;;;5070583;28;20262;-58
2021/04/04 00:13:12;;;;;;;13.03;8.33;;;5.10;1.00;;;;;;5071738;28;20175;-59
2021/04/04 00:15:40;;;;;;;11.93;8.10;;;5.10;1.00;;;;;;5072152;28;20279;-56
2021/04/04 00:18:06;;;;;;;13.43;8.30;;;5.10;1.00;;;;;;5072088;28;20509;-58
2021/04/04 00:20:32;;;;;;;13.50;8.77;;;5.00;1.00;;;;;;5071975;28;20468;-57
2021/04/04 00:22:57;;;;;;;11.53;8.20;;;5.00;1.00;;;;;;5071941;28;20953;-57
2021/04/04 00:25:23;;;;;;;11.00;8.10;;;5.00;1.00;;;;;;5071939;28;20230;-57
2021/04/04 00:27:48;;;;;;;10.73;7.60;;;4.90;1.00;;;;;;5071769;28;20179;-58
2021/04/04 00:30:17;;;;;;;11.47;8.63;;;4.90;1.00;;;;;;5071848;28;20225;-58
2021/04/04 00:32:43;;;;;;;12.00;7.70;;;4.90;1.00;;;;;;5071035;28;20320;-59
2021/04/04 00:35:19;;;;;;;6.00;5.40;;;4.90;1.00;;;;;;5070495;28;20516;-57
2021/04/04 00:37:49;;;;;;;8.13;4.77;;;4.90;1.00;;;;;;5071397;28;20675;-57
2021/04/04 00:40:37;;;;;;;5.60;4.03;;;4.80;1.00;;;;;;5071626;28;20445;-59
2021/04/04 00:43:04;;;;;;;7.10;3.70;;;4.70;1.00;;;;;;5070242;28;20446;-57
2021/04/04 00:45:33;;;;;;;5.80;4.10;;;4.70;1.00;;;;;;5071642;28;20954;-57
2021/04/04 00:47:59;;;;;;;16.83;4.33;;;4.70;1.00;;;;;;5070059;28;20526;-56
2021/04/04 00:50:30;;;;;;;5.43;3.87;;;4.70;1.00;;;;;;5090515;28;20552;-57
2021/04/04 00:52:56;;;;;;;4.00;3.23;;;4.70;1.00;;;;;;5088164;28;20218;-58
2021/04/04 00:55:23;;;;;;;4.50;3.50;;;4.70;1.00;;;;;;5071387;28;20437;-58
2021/04/04 00:57:50;;;;;;;5.50;3.70;;;4.70;1.00;;;;;;5070423;28;20445;-57
2021/04/04 01:00:17;;;;;;;5.50;3.47;;;4.70;1.00;;;;;;5070138;28;20437;-57
2021/04/04 01:02:43;;;;;;;6.73;3.80;;;4.50;1.00;;;;;;5071263;28;21114;-57
2021/04/04 01:05:12;;;;;;;6.70;3.97;;;4.50;1.00;;;;;;5070819;28;20438;-56
2021/04/04 01:07:38;;;;;;;6.10;3.87;;;4.40;1.00;;;;;;5070510;28;20461;-58
2021/04/04 01:10:08;;;;;;;6.20;4.63;;;4.50;1.00;;;;;;5087655;28;20488;-57
2021/04/04 01:12:55;;;;;;;6.00;5.17;;;4.50;1.00;;;;;;5087846;28;20211;-56
2021/04/04 01:15:28;;;;;;;7.20;5.37;;;4.50;1.00;;;;;;5072117;28;20572;-56
2021/04/04 01:17:56;;;;;;;6.77;4.40;;;4.50;1.00;;;;;;5071260;28;20437;-57
2021/04/04 01:20:27;;;;;;;6.40;5.07;;;4.30;1.00;;;;;;5071160;28;20441;-57
2021/04/04 01:23:13;;;;;;;5.67;4.20;;;4.40;1.00;;;;;;5071439;28;20439;-58
2021/04/04 01:25:49;;;;;;;6.20;3.30;;;4.40;1.00;;;;;;5070786;28;21004;-57
2021/04/04 01:28:19;;;;;;;3.50;3.20;;;4.40;1.00;;;;;;5068651;28;20441;-57
2021/04/04 01:30:48;;;;;;;6.70;3.70;;;4.40;1.00;;;;;;5071039;28;20449;-58
2021/04/04 01:33:15;;;;;;;4.63;2.93;;;4.30;1.00;;;;;;5078637;28;20445;-58
2021/04/04 01:35:45;;;;;;;3.30;3.00;;;4.20;1.00;;;;;;5089938;28;20425;-58
2021/04/04 01:38:13;;;;;;;6.60;4.63;;;4.20;1.00;;;;;;5091173;28;20428;-59
2021/04/04 01:40:43;;;;;;;4.93;4.30;;;4.20;1.00;;;;;;5091044;28;20475;-58
2021/04/04 01:43:11;;;;;;;4.37;3.20;;;4.20;1.00;;;;;;5080522;28;20437;-58
2021/04/04 01:45:39;;;;;;;8.30;4.83;;;4.20;1.00;;;;;;5076356;28;20520;-57
2021/04/04 01:48:06;;;;;;;4.83;4.07;;;4.10;1.00;;;;;;5074909;28;20429;-57
2021/04/04 01:50:31;;;;;;;6.43;3.40;;;4.20;1.00;;;;;;5078333;28;20440;-58
2021/04/04 01:52:58;;;;;;;4.67;3.90;;;4.20;1.00;;;;;;5069387;28;20838;-57
2021/04/04 01:55:24;;;;;;;5.70;4.13;;;4.10;1.00;;;;;;5070348;28;20204;-57
2021/04/04 01:57:51;;;;;;;5.00;4.10;;;4.00;1.00;;;;;;5070321;28;20437;-56
2021/04/04 02:00:21;;;;;;;5.13;3.60;;;4.00;1.00;;;;;;5070583;28;20524;-57
2021/04/04 02:02:47;;;;;;;5.03;3.50;;;4.00;1.00;;;;;;5079454;28;20432;-58
2021/04/04 02:05:14;;;;;;;6.20;3.70;;;3.90;1.00;;;;;;5080588;28;20472;-58
2021/04/04 02:07:42;;;;;;;5.43;3.70;;;3.90;1.00;;;;;;5074512;28;20449;-58
2021/04/04 02:10:18;;;;;;;8.67;4.73;;;4.00;1.00;;;;;;5070103;28;20469;-58
2021/04/04 02:12:44;;;;;;;6.80;4.20;;;3.90;1.00;;;;;;5070860;28;20445;-58
2021/04/04 02:15:15;;;;;;;3.93;3.50;;;3.70;1.00;;;;;;5069615;28;20429;-58
2021/04/04 02:17:44;;;;;;;6.27;4.20;;;3.70;1.00;;;;;;5068584;28;20461;-58
2021/04/04 02:20:13;;;;;;;5.20;3.90;;;3.80;1.00;;;;;;5069742;28;20945;-56
2021/04/04 02:22:39;;;;;;;5.23;3.50;;;3.70;1.00;;;;;;5076399;28;20472;-58
2021/04/04 02:25:07;;;;;;;5.60;4.33;;;3.70;1.00;;;;;;5084237;28;20492;-57
2021/04/04 02:27:33;;;;;;;5.20;4.13;;;3.70;1.00;;;;;;5076217;28;20448;-57
2021/04/04 02:29:58;;;;;;;4.70;4.13;;;3.70;1.00;;;;;;5071361;28;20488;-58
2021/04/04 02:32:26;;;;;;;5.10;4.30;;;3.70;1.00;;;;;;5079293;28;20261;-58
2021/04/04 02:34:57;;;;;;;5.40;4.53;;;3.70;1.00;;;;;;5094277;28;20190;-58
2021/04/04 02:37:23;;;;;;;5.97;4.27;;;3.70;1.00;;;;;;5094257;28;20436;-58
2021/04/04 02:39:53;;;;;;;4.93;4.30;;;3.60;1.00;;;;;;5080085;28;20449;-57
2021/04/04 02:42:22;;;;;;;5.53;4.80;;;3.60;1.00;;;;;;5080606;28;20449;-57
2021/04/04 02:44:51;;;;;;;5.60;4.23;;;3.60;1.00;;;;;;5079549;28;20522;-58
2021/04/04 02:47:22;;;;;;;13.10;4.97;;;3.60;1.00;;;;;;5082326;28;20445;-56
2021/04/04 02:49:51;;;;;;;7.37;5.37;;;3.60;1.00;;;;;;5086763;28;20460;-57
2021/04/04 02:52:19;;;;;;;5.20;4.40;;;3.60;1.00;;;;;;5071610;28;20437;-58
2021/04/04 02:54:47;;;;;;;5.63;4.97;;;3.50;1.00;;;;;;5072651;28;20442;-58
2021/04/04 02:57:14;;;;;;;8.43;5.50;;;3.50;1.00;;;;;;5074120;28;20441;-57
2021/04/04 02:59:46;;;;;;;5.80;5.20;;;3.40;1.00;;;;;;5093880;28;20921;-58
2021/04/04 03:02:16;;;;;;;5.63;4.57;;;3.40;1.00;;;;;;5075153;28;20451;-58
2021/04/04 03:04:44;;;;;;;6.13;5.47;;;3.40;1.00;;;;;;5072243;28;20442;-58
2021/04/04 03:07:14;;;;;;;6.63;5.77;;;3.40;1.00;;;;;;5072461;28;20855;-58
2021/04/04 03:09:43;;;;;;;8.50;5.53;;;3.50;1.00;;;;;;5073608;28;20466;-58
2021/04/04 03:12:09;;;;;;;6.60;5.80;;;3.30;1.00;;;;;;5073125;28;20493;-58
2021/04/04 03:14:35;;;;;;;6.97;5.30;;;3.30;1.00;;;;;;5080263;28;20438;-57
2021/04/04 03:17:03;;;;;;;6.33;5.60;;;3.40;1.00;;;;;;5073273;28;20429;-57
2021/04/04 03:19:30;;;;;;;6.80;5.40;;;3.40;1.00;;;;;;5073404;28;20461;-58
2021/04/04 03:21:57;;;;;;;8.47;6.10;;;3.40;1.00;;;;;;5071862;28;20445;-58
2021/04/04 03:24:24;;;;;;;7.53;5.63;;;3.40;1.00;;;;;;5072865;28;20992;-57
2021/04/04 03:26:50;;;;;;;6.63;5.20;;;3.40;1.00;;;;;;5074220;28;20479;-58
2021/04/04 03:29:17;;;;;;;7.87;5.70;;;3.40;1.00;;;;;;5074346;28;20477;-58
2021/04/04 03:31:43;;;;;;;8.37;6.10;;;3.40;1.00;;;;;;5072905;28;20506;-56
2021/04/04 03:34:09;;;;;;;7.20;5.70;;;3.40;1.00;;;;;;5087030;28;20436;-57
2021/04/04 03:36:36;;;;;;;12.20;5.87;;;3.30;1.00;;;;;;5074249;28;20862;-58
2021/04/04 03:39:03;;;;;;;7.07;5.90;;;3.30;1.00;;;;;;5070977;28;20470;-57
2021/04/04 03:41:31;;;;;;;7.57;5.60;;;3.30;1.00;;;;;;5086160;28;20946;-58
2021/04/04 03:43:57;;;;;;;7.90;5.67;;;3.20;1.00;;;;;;5089215;28;20462;-57
2021/04/04 03:46:30;;;;;;;8.20;6.03;;;3.20;1.00;;;;;;5076553;28;20582;-57
2021/04/04 03:48:56;;;;;;;7.83;6.50;;;3.10;1.00;;;;;;5092599;28;20957;-58
2021/04/04 03:51:24;;;;;;;10.20;6.07;;;3.10;1.00;;;;;;5087481;28;20437;-57
2021/04/04 03:53:51;;;;;;;10.80;7.00;;;3.20;1.00;;;;;;5079762;28;20459;-57
2021/04/04 03:56:22;;;;;;;10.60;7.20;;;3.10;1.00;;;;;;5079139;28;20475;-57
2021/04/04 03:58:50;;;;;;;8.07;6.90;;;3.10;1.00;;;;;;5070640;28;20450;-57
2021/04/04 04:01:21;;;;;;;8.00;6.30;;;3.20;1.00;;;;;;5072030;28;20954;-58
2021/04/04 04:03:48;;;;;;;8.57;7.00;;;3.30;1.00;;;;;;5072003;28;20527;-56
2021/04/04 04:06:15;;;;;;;7.90;7.13;;;3.30;1.00;;;;;;5072206;28;20440;-57
2021/04/04 04:08:42;;;;;;;8.80;7.23;;;3.30;1.00;;;;;;5069014;28;20858;-57
2021/04/04 04:11:09;;;;;;;6.60;5.87;;;3.20;1.00;;;;;;5071268;28;20471;-57
2021/04/04 04:13:36;;;;;;;10.10;6.10;;;3.00;1.00;;;;;;5071522;28;20428;-56
2021/04/04 04:16:02;;;;;;;7.93;6.17;;;3.00;1.00;;;;;;5078917;28;20988;-56
2021/04/04 04:18:29;;;;;;;5.93;5.30;;;3.00;1.00;;;;;;5076560;28;20434;-57
2021/04/04 04:20:55;;;;;;;10.43;6.20;;;3.10;1.00;;;;;;5071843;28;20447;-58
2021/04/04 04:23:22;;;;;;;7.70;5.87;;;3.10;1.00;;;;;;5070587;28;20890;-57
2021/04/04 04:25:48;;;;;;;7.73;6.20;;;3.00;1.00;;;;;;5079191;28;20482;-58
2021/04/04 04:28:15;;;;;;;8.50;6.27;;;3.00;1.00;;;;;;5072227;28;20907;-58
2021/04/04 04:30:42;;;;;;;8.90;5.60;;;2.90;1.00;;;;;;5068358;28;20969;-58
2021/04/04 04:33:12;;;;;;;9.33;6.00;;;2.90;1.00;;;;;;5071776;28;20973;-57
2021/04/04 04:35:38;;;;;;;13.03;7.67;;;3.00;1.00;;;;;;5077339;28;20436;-57
2021/04/04 04:38:04;;;;;;;10.87;7.00;;;2.90;1.00;;;;;;5078777;28;20436;-58
2021/04/04 04:40:31;;;;;;;10.40;6.17;;;3.00;1.00;;;;;;5076380;28;20913;-58
2021/04/04 04:42:59;;;;;;;11.03;5.33;;;3.00;1.00;;;;;;5092114;28;20479;-57
2021/04/04 04:45:31;;;;;;;7.20;4.80;;;3.00;1.00;;;;;;5073984;28;20441;-57
2021/04/04 04:47:57;;;;;;;7.20;5.63;;;2.90;1.00;;;;;;5071569;28;20494;-58
2021/04/04 04:50:24;;;;;;;6.67;5.80;;;2.90;1.00;;;;;;5069831;28;20465;-58
2021/04/04 04:52:50;;;;;;;8.30;6.27;;;2.90;1.00;;;;;;5071774;28;20433;-56
2021/04/04 04:55:18;;;;;;;6.20;5.60;;;3.00;1.00;;;;;;5078365;28;20474;-58
2021/04/04 04:57:45;;;;;;;7.10;5.70;;;3.00;1.00;;;;;;5071781;28;20445;-58
2021/04/04 05:00:11;;;;;;;6.40;5.80;;;2.90;1.00;;;;;;5071304;28;20433;-59
2021/04/04 05:02:38;;;;;;;6.90;5.40;;;2.90;1.00;;;;;;5071601;28;20931;-58
2021/04/04 05:05:06;;;;;;;5.60;4.80;;;2.90;1.00;;;;;;5071568;28;21041;-57
2021/04/04 05:07:33;;;;;;;7.47;5.93;;;2.90;1.00;;;;;;5071310;28;20491;-57
2021/04/04 05:10:01;;;;;;;8.27;5.27;;;3.10;1.00;;;;;;5070063;28;20458;-57
2021/04/04 05:12:28;;;;;;;10.43;5.60;;;3.20;1.00;;;;;;5070238;28;20975;-59
2021/04/04 05:14:54;;;;;;;8.67;6.13;;;3.30;1.00;;;;;;5070257;28;20477;-58
2021/04/04 05:17:20;;;;;;;8.30;5.73;;;;;;;;;;5070709;28;20459;-59
2021/04/04 05:19:46;;;;;;;8.83;6.03;;;;;;;;;;5070745;28;20273;-57
2021/04/04 05:22:13;;;;;;;13.20;6.00;;;3.30;1.00;;;;;;5071322;28;20452;-58
2021/04/04 05:24:39;;;;;;;7.50;5.60;;;3.30;1.00;;;;;;5070690;28;20453;-58
2021/04/04 05:27:05;;;;;;;6.80;5.20;;;3.30;1.00;;;;;;5078372;28;20528;-58
2021/04/04 05:29:31;;;;;;;8.57;5.43;;;3.30;1.00;;;;;;5072220;28;20556;-58
2021/04/04 05:31:57;;;;;;;8.53;5.63;;;3.40;1.00;;;;;;5076847;28;20899;-57
2021/04/04 05:34:28;;;;;;;8.30;5.37;;;3.30;1.00;;;;;;5071216;28;20211;-59
2021/04/04 05:36:59;;;;;;;5.40;4.60;;;3.50;1.00;;;;;;5074097;28;20439;-57
2021/04/04 05:39:27;;;;;;;8.70;6.10;;;3.60;1.00;;;;;;5074332;28;20440;-58
2021/04/04 05:41:57;;;;;;;5.60;4.73;;;3.60;1.00;;;;;;5071214;28;20442;-57
2021/04/04 05:44:42;;;;;;;7.63;4.90;;;3.60;1.00;;;;;;5074371;28;20941;-58
2021/04/04 05:47:30;;;;;;;5.80;4.90;;;3.70;1.00;;;;;;5068172;28;20468;-59
2021/04/04 05:50:41;;;;;;;7.60;4.70;;;3.70;1.00;;;;;;5068754;28;20476;-58
2021/04/04 05:53:19;;;;;;;7.90;5.43;;;3.80;1.00;;;;;;5064364;28;20519;-57
2021/04/04 05:56:14;;;;;;;9.50;5.43;;;4.10;1.00;;;;;;5075821;28;20434;-58
2021/04/04 05:59:05;;;;;;;6.40;5.07;;;4.10;1.00;;;;;;5071593;28;20437;-58
2021/04/04 06:01:33;;;;;;;6.70;3.90;;;4.10;1.00;;;;;;5091108;28;20941;-57
2021/04/04 06:04:14;;;;;;;5.37;4.07;;;4.20;1.00;;;;;;5090593;28;20806;-58
2021/04/04 06:07:00;;;;;;;10.27;4.53;;;4.30;1.00;;;;;;5083295;28;20433;-57
2021/04/04 06:09:50;;;;;;;6.67;4.43;;;4.40;1.00;;;;;;5067542;28;20467;-58
2021/04/04 06:12:34;;;;;;;5.23;4.57;;;4.50;1.00;;;;;;5071621;28;20433;-57
2021/04/04 06:15:11;;;;;;;5.77;4.20;;;4.60;1.00;;;;;;5080675;28;20460;-58
2021/04/04 06:17:50;;;;;;;5.83;4.03;;;4.80;1.00;;;;;;5082176;28;20520;-57
2021/04/04 06:20:32;;;;;;;4.20;3.40;;;4.80;1.00;;;;;;5074484;28;20430;-58
2021/04/04 06:23:23;;;;;;;5.27;4.40;;;5.00;1.00;;;;;;5083671;28;20461;-57
2021/04/04 06:25:58;;;;;;;5.60;3.80;;;5.10;1.00;;;;;;5073704;28;21075;-58
2021/04/04 06:28:51;;;;;;;5.60;4.20;;;5.20;1.00;;;;;;5093028;28;20465;-58
2021/04/04 06:31:39;;;;;;;5.57;3.83;;;5.20;1.00;;;;;;5078159;28;20462;-58
2021/04/04 06:34:20;;;;;;;6.10;4.37;;;5.30;1.00;;;;;;5092958;28;20460;-59
2021/04/04 06:37:12;;;;;;;6.37;4.70;;;5.40;1.00;;;;;;5078511;28;20507;-57
2021/04/04 06:39:59;;;;;;;3.87;3.13;;;5.60;1.00;;;;;;5070482;28;20798;-60
2021/04/04 06:43:07;;;;;;;4.60;3.67;;;5.70;1.00;;;;;;5072031;28;21006;-57
2021/04/04 06:45:58;;;;;;;4.40;3.70;;;5.80;1.00;;;;;;5021790;28;20480;-59
2021/04/04 06:48:56;;;;;;;4.30;3.90;;;5.90;1.00;;;;;;5070392;28;20442;-58
2021/04/04 06:51:27;;;;;;;8.70;4.20;;;6.00;1.00;;;;;;5080598;28;20438;-58
2021/04/04 06:54:16;;;;;;;4.67;3.80;;;6.40;1.00;;;;;;5073024;28;20953;-58
2021/04/04 06:57:01;;;;;;;6.27;3.93;;;6.40;1.00;;;;;;5076870;28;20437;-62
2021/04/04 06:59:42;;;;;;;4.47;3.50;;;6.50;1.00;;;;;;5072147;28;20447;-59
2021/04/04 07:02:12;;;;;;;5.43;3.23;;;6.50;1.00;;;;;;5071870;28;20456;-59
2021/04/04 07:04:45;;;;;;;4.17;3.53;;;6.50;1.00;;;;;;5071991;28;20453;-60
2021/04/04 07:07:46;;;;;;;5.20;3.50;;;6.60;1.00;;;;;;5071394;28;20469;-59
2021/04/04 07:10:38;;;;;;;4.33;3.23;;;6.80;1.00;;;;;;5047505;28;20503;-59
2021/04/04 07:13:41;;;;;;;4.87;3.30;;;6.90;1.00;;;;;;5072479;28;20438;-57
2021/04/04 07:16:34;;;;;;;5.23;2.93;;;7.00;1.00;;;;;;5071715;28;20466;-58
2021/04/04 07:19:13;;;;;;;4.20;3.63;;;7.40;1.00;;;;;;5065804;28;20450;-59
2021/04/04 07:21:42;;;;;;;11.37;3.93;;;7.40;1.00;;;;;;5070421;28;20441;-58
2021/04/04 07:24:26;;;;;;;3.60;3.27;;;7.50;1.00;;;;;;5068723;28;20859;-57
2021/04/04 07:27:06;;;;;;;3.83;3.43;;;7.50;1.00;;;;;;5071879;28;20474;-58
2021/04/04 07:29:50;;;;;;;3.97;3.60;;;7.70;1.00;;;;;;5070790;28;20475;-59
2021/04/04 07:32:27;;;;;;;4.80;3.80;;;7.80;1.00;;;;;;5074427;28;20437;-58
2021/04/04 07:35:20;;;;;;;6.33;3.43;;;8.00;1.00;;;;;;5070582;28;20453;-59
2021/04/04 07:37:49;;;;;;;5.03;3.90;;;8.20;1.00;;;;;;5072122;28;20442;-59
2021/04/04 07:40:21;;;;;;;5.80;3.77;;;8.40;1.00;;;;;;5070764;28;20438;-58
2021/04/04 07:42:49;;;;;;;4.47;3.07;;;8.40;1.00;;;;;;5070959;28;20461;-58
2021/04/04 07:45:27;;;;;;;4.97;3.57;;;8.50;1.00;;;;;;5071973;28;20919;-60
2021/04/04 07:48:16;;;;;;;4.00;3.43;;;8.70;1.00;;;;;;5071144;28;20447;-59
2021/04/04 07:50:55;;;;;;;3.83;2.90;;;8.80;1.00;;;;;;5060862;28;20963;-59
2021/04/04 07:53:38;;;;;;;6.53;3.97;;;8.90;1.00;;;;;;5066342;28;20476;-58
2021/04/04 07:56:13;;;;;;;3.47;3.17;;;9.10;1.00;;;;;;5066376;28;20446;-60
2021/04/04 07:59:03;;;;;;;4.67;3.10;;;9.30;1.00;;;;;;5071677;28;20445;-60
2021/04/04 08:02:06;;;;;;;3.73;3.33;;;9.40;1.00;;;;;;5069563;28;20507;-58
2021/04/04 08:04:42;;;;;;;3.67;3.37;;;9.30;1.00;;;;;;5075206;28;20530;-57
2021/04/04 08:07:15;;;;;;;6.40;3.80;;;9.30;1.00;;;;;;5078447;28;20855;-60
2021/04/04 08:09:51;;;;;;;3.70;3.07;;;9.30;1.00;;;;;;5078530;28;20511;-59
2021/04/04 08:12:31;;;;;;;4.20;2.83;;;9.60;1.00;;;;;;5079700;28;20474;-59
2021/04/04 08:15:04;;;;;;;3.80;3.50;;;9.70;1.00;;;;;;5071807;28;20493;-58
2021/04/04 08:17:30;;;;;;;4.53;3.27;;;9.70;1.00;;;;;;5078791;28;20446;-60
2021/04/04 08:20:03;;;;;;;3.30;2.60;;;9.60;1.00;;;;;;5073622;28;20442;-60
2021/04/04 08:22:35;;;;;;;4.23;3.30;;;9.60;1.00;;;;;;5072804;28;20195;-59
2021/04/04 08:25:20;;;;;;;3.67;3.37;;;9.30;1.00;;;;;;5070048;28;21928;-61
2021/04/04 08:27:58;;;;;;;4.67;3.13;;;9.40;1.00;;;;;;5068483;28;20452;-60
2021/04/04 08:30:36;;;;;;;2.60;2.30;;;9.60;1.00;;;;;;5074220;28;20556;-59
2021/04/04 08:33:05;;;;;;;3.20;2.90;;;10.00;1.00;;;;;;5069985;28;20791;-59
2021/04/04 08:35:38;;;;;;;5.10;3.20;;;10.10;1.00;;;;;;5070262;28;20449;-60
2021/04/04 08:38:17;;;;;;;3.60;2.97;;;10.20;1.00;;;;;;5070279;28;20446;-59
2021/04/04 08:40:43;;;;;;;4.70;3.20;;;10.30;1.00;;;;;;5076888;28;20449;-57
2021/04/04 08:43:11;;;;;;;3.97;3.00;;;10.70;1.00;;;;;;5072932;28;20432;-59
2021/04/04 08:45:45;;;;;;;3.37;2.77;;;10.60;1.00;;;;;;5077808;28;20518;-60
2021/04/04 08:48:14;;;;;;;3.30;3.00;;;10.50;1.00;;;;;;5071233;28;20455;-59
2021/04/04 08:50:43;;;;;;;6.03;3.30;;;10.50;1.00;;;;;;5078923;28;20462;-59
2021/04/04 08:53:18;;;;;;;4.00;2.67;;;10.30;1.00;;;;;;5074405;28;20507;-59
2021/04/04 08:55:47;;;;;;;3.63;3.00;;;10.40;1.00;;;;;;5069258;28;21017;-59
2021/04/04 08:58:15;;;;;;;2.90;2.70;;;10.60;1.00;;;;;;5069011;28;21110;-58
2021/04/04 09:00:41;;;;;;;3.73;3.43;;;10.80;1.00;;;;;;5073104;28;20477;-58
2021/04/04 09:03:21;;;;;;;5.10;2.60;;;11.00;1.00;;;;;;5075619;28;20449;-59
2021/04/04 09:06:03;;;;;;;2.73;2.53;;;11.10;1.00;;;;;;5069878;28;20975;-60
2021/04/04 09:08:30;;;;;;;3.20;2.43;;;11.10;1.00;;;;;;5062810;28;20574;-59
2021/04/04 09:10:56;;;;;;;2.90;2.60;;;11.00;1.00;;;;;;5069367;28;20857;-59
2021/04/04 09:13:23;;;;;;;4.70;2.63;;;11.10;1.00;;;;;;5069516;28;20497;-61
2021/04/04 09:15:51;;;;;;;3.90;3.10;;;11.10;1.00;;;;;;5069792;28;20995;-60
2021/04/04 09:18:18;;;;;;;2.40;2.20;;;11.30;1.00;;;;;;5070462;28;20515;-60
2021/04/04 09:20:45;;;;;;;3.47;2.97;;;11.30;1.00;;;;;;5071209;28;20446;-60
2021/04/04 09:23:17;;;;;;;3.00;1.93;;;11.50;1.00;;;;;;5076571;28;20768;-60
2021/04/04 09:26:06;;;;;;;2.60;2.33;;;11.10;1.00;;;;;;5071495;28;20482;-59
2021/04/04 09:28:35;;;;;;;2.90;2.23;;;11.00;1.00;;;;;;5063480;28;20481;-60
2021/04/04 09:31:02;;;;;;;5.20;2.10;;;11.20;1.00;;;;;;5068109;28;20451;-61
2021/04/04 09:33:33;;;;;;;2.20;1.70;;;11.50;1.00;;;;;;5064497;28;20438;-60
2021/04/04 09:36:01;;;;;;;2.73;1.90;;;11.50;1.00;;;;;;5067795;28;20787;-60
2021/04/04 09:38:36;;;;;;;2.93;2.07;;;11.50;1.00;;;;;;5069494;28;20958;-60
2021/04/04 09:41:03;;;;;;;2.20;1.70;;;11.40;1.00;;;;;;5070178;28;20514;-59
2021/04/04 09:43:28;;;;;;;2.40;2.20;;;11.40;1.00;;;;;;5075286;28;20433;-60
2021/04/04 09:46:05;;;;;;;2.43;2.00;;;11.50;1.00;;;;;;5072211;28;20493;-60
2021/04/04 09:48:31;;;;;;;3.83;2.17;;;11.30;1.00;;;;;;5072165;28;20181;-60
2021/04/04 09:51:15;;;;;;;1.90;1.63;;;11.10;1.00;;;;;;5072148;28;20813;-60
2021/04/04 09:53:47;;;;;;;2.17;1.80;;;11.00;1.00;;;;;;5070786;28;20179;-61
2021/04/04 09:56:15;;;;;;;2.60;1.33;;;11.10;1.00;;;;;;5077277;28;20504;-59
2021/04/04 09:58:42;;;;;;;2.33;1.90;;;11.00;1.00;;;;;;5067213;28;21046;-60
2021/04/04 10:01:20;;;;;;;3.40;1.60;;;11.50;1.00;;;;;;5071976;28;20446;-60
2021/04/04 10:04:06;;;;;;;2.23;1.93;;;11.50;1.00;;;;;;5073684;28;20810;-59
2021/04/04 10:06:34;;;;;;;3.93;2.30;;;11.70;1.00;;;;;;5072841;28;20591;-60
2021/04/04 10:09:04;;;;;;;2.97;1.93;;;11.50;1.00;;;;;;5074528;28;20460;-60
2021/04/04 10:11:31;;;;;;;2.30;1.47;;;11.50;1.00;;;;;;5072838;28;20434;-60
2021/04/04 10:14:14;;;;;;;1.90;1.73;;;11.60;1.00;;;;;;5073924;28;20436;-60
2021/04/04 10:16:41;;;;;;;2.13;1.50;;;11.90;1.00;;;;;;5073990;28;20441;-60
2021/04/04 10:19:11;;;;;;;3.10;2.10;;;12.10;1.00;;;;;;5072338;28;20444;-60
2021/04/04 10:21:56;;;;;;;5.80;2.20;;;12.00;1.00;;;;;;5072002;28;20437;-60
2021/04/04 10:24:29;;;;;;;3.00;1.80;;;11.70;1.00;;;;;;5073371;28;20432;-60
2021/04/04 10:27:27;;;;;;;1.77;1.50;;;11.90;1.00;;;;;;5072285;28;20536;-60
2021/04/04 10:30:01;;;;;;;3.93;1.60;;;12.10;1.00;;;;;;5071236;28;20465;-60
2021/04/04 10:32:27;;;;;;;1.90;1.70;;;12.20;1.00;;;;;;5073253;28;20439;-60
2021/04/04 10:34:53;;;;;;;2.13;1.70;;;12.30;1.00;;;;;;5072696;28;21007;-60
2021/04/04 10:37:26;;;;;;;1.60;1.20;;;12.10;1.00;;;;;;5073316;28;20189;-59
2021/04/04 10:39:56;;;;;;;1.50;1.40;;;11.90;1.00;;;;;;5069535;28;20191;-59
2021/04/04 10:42:22;;;;;;;2.67;1.80;;;12.10;1.00;;;;;;5069013;28;20483;-60
2021/04/04 10:44:48;;;;;;;2.30;1.57;;;12.30;1.00;;;;;;5072583;28;20843;-59
2021/04/04 10:47:19;;;;;;;3.53;2.57;;;12.00;1.00;;;;;;5073582;28;20251;-61
2021/04/04 10:49:45;;;;;;;2.20;1.60;;;12.00;1.00;;;;;;5071556;28;20391;-60
2021/04/04 10:52:12;;;;;;;1.77;1.30;;;12.40;1.00;;;;;;5072476;28;20447;-60
2021/04/04 10:54:38;;;;;;;2.77;1.50;;;12.30;1.00;;;;;;5072884;28;20553;-60
2021/04/04 10:57:04;;;;;;;2.80;1.60;;;12.20;1.00;;;;;;5072530;28;20482;-60
2021/04/04 10:59:30;;;;;;;4.23;2.13;;;11.90;1.00;;;;;;5072726;28;20524;-60
2021/04/04 11:01:56;;;;;;;2.40;1.73;;;12.00;1.00;;;;;;5069223;28;20531;-60
2021/04/04 11:04:23;;;;;;;3.27;2.00;;;12.10;1.00;;;;;;5073064;28;20659;-59
2021/04/04 11:06:49;;;;;;;3.83;2.73;;;12.10;1.00;;;;;;5069059;28;20195;-60
2021/04/04 11:09:15;;;;;;;4.30;2.80;;;12.40;1.00;;;;;;5071539;28;20476;-60
2021/04/04 11:11:41;;;;;;;4.43;2.90;;;12.60;1.00;;;;;;5072567;28;20445;-61
2021/04/04 11:14:10;;;;;;;3.93;2.20;;;12.30;1.00;;;;;;5068088;28;20190;-60
2021/04/04 11:16:36;;;;;;;3.83;2.67;;;12.30;1.00;;;;;;5071185;28;20487;-60
2021/04/04 11:19:07;;;;;;;2.50;2.10;;;12.20;1.00;;;;;;5072447;28;20494;-60
2021/04/04 11:21:40;;;;;;;4.77;2.70;;;12.20;1.00;;;;;;5082682;28;20448;-61
2021/04/04 11:24:16;;;;;;;5.23;3.30;;;12.40;1.00;;;;;;5092619;28;20442;-60
2021/04/04 11:26:54;;;;;;;3.97;3.10;;;12.50;1.00;;;;;;5092363;28;20821;-60
2021/04/04 11:29:24;;;;;;;3.80;3.00;;;12.60;1.00;;;;;;5092187;28;20460;-60
2021/04/04 11:31:55;;;;;;;5.97;2.47;;;12.70;1.00;;;;;;5092242;28;20427;-60
2021/04/04 11:34:29;;;;;;;4.03;3.07;;;12.40;1.00;;;;;;5079540;28;20449;-60
2021/04/04 11:36:56;;;;;;;2.90;2.50;;;12.70;1.00;;;;;;5071238;28;20455;-59
2021/04/04 11:39:22;;;;;;;3.17;2.40;;;12.60;1.00;;;;;;5072000;28;20445;-60
2021/04/04 11:42:03;;;;;;;2.63;2.40;;;12.30;1.00;;;;;;5070186;28;20780;-60
2021/04/04 11:44:37;;;;;;;6.57;3.03;;;12.40;1.00;;;;;;5069921;28;20961;-60
2021/04/04 11:47:05;;;;;;;2.77;2.50;;;12.60;1.00;;;;;;5072286;28;20439;-61
2021/04/04 11:49:30;;;;;;;6.90;2.90;;;12.40;1.00;;;;;;5071582;28;20560;-60
2021/04/04 11:51:58;;;;;;;3.20;2.23;;;12.60;1.00;;;;;;5070519;28;20860;-59
2021/04/04 11:54:44;;;;;;;3.43;2.33;;;13.20;1.00;;;;;;5071639;28;20191;-62
2021/04/04 11:57:10;;;;;;;2.83;2.20;;;13.30;1.00;;;;;;5071548;28;20440;-60
2021/04/04 11:59:35;;;;;;;3.67;2.30;;;13.00;1.00;;;;;;5071455;28;20437;-60
2021/04/04 12:02:01;;;;;;;3.27;2.43;;;13.20;1.00;;;;;;5071417;28;20582;-61
2021/04/04 12:04:33;;;;;;;2.10;2.00;;;13.00;1.00;;;;;;5067885;28;20193;-60
2021/04/04 12:07:06;;;;;;;6.70;2.57;;;12.10;1.00;;;;;;5068616;28;20183;-60
2021/04/04 12:09:33;;;;;;;3.37;2.53;;;12.10;1.00;;;;;;5071154;28;20966;-60
2021/04/04 12:11:59;;;;;;;3.53;2.10;;;12.10;1.00;;;;;;5069912;28;21036;-59
2021/04/04 12:14:25;;;;;;;2.83;2.60;;;12.50;1.00;;;;;;5070840;28;20517;-58
2021/04/04 12:16:50;;;;;;;4.67;2.37;;;12.80;1.00;;;;;;5069848;28;20193;-59
2021/04/04 12:19:29;;;;;;;3.60;2.20;;;12.70;1.00;;;;;;5076892;28;20619;-59
2021/04/04 12:21:56;;;;;;;3.60;2.70;;;12.70;1.00;;;;;;5091251;28;20179;-59
2021/04/04 12:24:40;;;;;;;4.53;2.37;;;12.60;1.00;;;;;;5091250;28;20759;-60
2021/04/04 12:27:13;;;;;;;3.43;2.73;;;12.60;1.00;;;;;;5088021;28;20869;-59
2021/04/04 12:29:51;;;;;;;5.47;2.33;;;12.90;1.00;;;;;;5086132;28;20519;-60
2021/04/04 12:32:31;;;;;;;3.97;2.90;;;13.20;1.00;;;;;;5087238;28;20443;-59
2021/04/04 12:35:05;;;;;;;4.57;2.77;;;13.20;1.00;;;;;;5092768;28;20631;-60
2021/04/04 12:37:33;;;;;;;6.70;3.10;;;13.10;1.00;;;;;;5087103;28;20443;-59
2021/04/04 12:40:01;;;;;;;2.90;2.63;;;12.90;1.00;;;;;;5086638;28;20437;-59
2021/04/04 12:42:29;;;;;;;3.97;2.83;;;13.00;1.00;;;;;;5087797;28;20445;-59
2021/04/04 12:44:56;;;;;;;4.23;3.03;;;13.10;1.00;;;;;;5084195;28;20518;-59
2021/04/04 12:47:24;;;;;;;3.70;3.13;;;12.70;1.00;;;;;;5085843;28;20520;-60
2021/04/04 12:50:08;;;;;;;4.17;2.77;;;12.70;1.00;;;;;;5086494;28;20442;-60
2021/04/04 12:52:48;;;;;;;5.10;2.67;;;12.40;1.00;;;;;;5083859;28;20486;-59
2021/04/04 12:55:17;;;;;;;4.83;3.33;;;12.30;1.00;;;;;;5083255;28;20460;-59
2021/04/04 12:57:44;;;;;;;4.47;3.07;;;12.30;1.00;;;;;;5081442;28;20581;-60
2021/04/04 13:00:29;;;;;;;4.70;3.07;;;12.40;1.00;;;;;;5080940;28;20517;-59
2021/04/04 13:02:55;;;;;;;6.37;3.33;;;12.70;1.00;;;;;;5087608;28;20447;-61
2021/04/04 13:05:21;;;;;;;6.07;3.03;;;12.80;1.00;;;;;;5098943;28;20464;-59
2021/04/04 13:07:47;;;;;;;4.07;3.20;;;11.80;1.00;;;;;;5085046;28;20501;-58
2021/04/04 13:10:13;;;;;;;6.07;3.37;;;12.60;1.00;;;;;;5080779;28;20457;-60
2021/04/04 13:12:40;;;;;;;8.17;3.47;;;12.30;1.00;;;;;;5089276;28;20194;-60
2021/04/04 13:15:07;;;;;;;3.60;2.70;;;12.30;1.00;;;;;;5086428;28;20548;-60
2021/04/04 13:17:42;;;;;;;4.73;3.80;;;12.50;1.00;;;;;;5083182;28;20953;-60
2021/04/04 13:20:09;;;;;;;3.80;3.20;;;12.70;1.00;;;;;;5086783;28;20443;-58
2021/04/04 13:22:38;;;;;;;5.30;3.33;;;12.80;1.00;;;;;;5086737;28;20885;-61
2021/04/04 13:25:06;;;;;;;5.63;4.00;;;13.00;1.00;;;;;;5086321;28;20467;-59
2021/04/04 13:27:32;;;;;;;3.70;3.27;;;12.90;1.00;;;;;;5086897;28;20444;-59